createdAt,value
2017-04-30T00:00:03.255Z,1019.48
2017-04-30T00:01:12.527Z,1019.54
2017-04-30T00:02:21.744Z,1019.51
2017-04-30T00:03:30.954Z,1019.54
2017-04-30T00:04:40.168Z,1019.56
2017-04-30T00:05:49.703Z,1019.55
2017-04-30T00:06:59.070Z,1019.57
2017-04-30T00:08:08.283Z,1019.56
2017-04-30T00:09:18.469Z,1019.56
2017-04-30T00:10:28.329Z,1019.55
2017-04-30T00:11:37.217Z,1019.56
2017-04-30T00:12:46.255Z,1019.56
2017-04-30T00:13:55.797Z,1019.53
2017-04-30T00:15:05.009Z,1019.55
2017-04-30T00:16:14.544Z,1019.52
2017-04-30T00:17:23.758Z,1019.48
2017-04-30T00:18:33.342Z,1019.53
2017-04-30T00:19:42.884Z,1019.54
2017-04-30T00:20:51.770Z,1019.52
2017-04-30T00:22:00.977Z,1019.53
2017-04-30T00:23:10.510Z,1019.51
2017-04-30T00:24:20.421Z,1019.53
2017-04-30T00:25:29.961Z,1019.49
2017-04-30T00:26:39.173Z,1019.49
2017-04-30T00:27:48.710Z,1019.5
2017-04-30T00:28:58.246Z,1019.52
2017-04-30T00:30:08.091Z,1019.47
2017-04-30T00:31:17.299Z,1019.51
2017-04-30T00:32:26.505Z,1019.5
2017-04-30T00:33:35.764Z,1019.51
2017-04-30T00:34:45.300Z,1019.53
2017-04-30T00:35:54.573Z,1019.54
2017-04-30T00:37:03.461Z,1019.53
2017-04-30T00:38:12.673Z,1019.53
2017-04-30T00:39:21.897Z,1019.55
2017-04-30T00:40:31.433Z,1019.53
2017-04-30T00:41:40.724Z,1019.54
2017-04-30T00:42:50.269Z,1019.57
2017-04-30T00:44:00.131Z,1019.54
2017-04-30T00:45:09.665Z,1019.55
2017-04-30T00:46:18.551Z,1019.59
2017-04-30T00:47:27.541Z,1019.55
2017-04-30T00:48:36.755Z,1019.57
2017-04-30T00:49:45.638Z,1019.54
2017-04-30T00:50:54.884Z,1019.57
2017-04-30T00:52:04.106Z,1019.59
2017-04-30T00:53:13.142Z,1019.61
2017-04-30T00:54:22.362Z,1019.58
2017-04-30T00:55:31.581Z,1019.59
2017-04-30T00:56:40.789Z,1019.61
2017-04-30T00:57:50.328Z,1019.59
2017-04-30T00:58:59.685Z,1019.57
2017-04-30T01:00:09.222Z,1019.61
2017-04-30T01:01:18.107Z,1019.55
2017-04-30T01:02:26.992Z,1019.57
2017-04-30T01:03:36.522Z,1019.55
2017-04-30T01:04:45.554Z,1019.54
2017-04-30T01:05:54.762Z,1019.54
2017-04-30T01:07:03.645Z,1019.56
2017-04-30T01:08:12.852Z,1019.55
2017-04-30T01:09:22.387Z,1019.62
2017-04-30T01:10:31.700Z,1019.62
2017-04-30T01:11:40.585Z,1019.61
2017-04-30T01:12:49.795Z,1019.59
2017-04-30T01:13:59.335Z,1019.62
2017-04-30T01:15:09.193Z,1019.63
2017-04-30T01:16:18.228Z,1019.62
2017-04-30T01:17:27.110Z,1019.61
2017-04-30T01:18:36.317Z,1019.58
2017-04-30T01:19:45.855Z,1019.57
2017-04-30T01:20:55.402Z,1019.56
2017-04-30T01:22:04.610Z,1019.55
2017-04-30T01:23:13.824Z,1019.58
2017-04-30T01:24:23.689Z,1019.56
2017-04-30T01:25:32.904Z,1019.55
2017-04-30T01:26:41.792Z,1019.59
2017-04-30T01:27:51.057Z,1019.52
2017-04-30T01:29:00.602Z,1019.53
2017-04-30T01:30:10.139Z,1019.51
2017-04-30T01:31:19.352Z,1019.54
2017-04-30T01:32:28.562Z,1019.58
2017-04-30T01:33:38.247Z,1019.55
2017-04-30T01:34:47.457Z,1019.57
2017-04-30T01:35:56.665Z,1019.58
2017-04-30T01:37:05.871Z,1019.55
2017-04-30T01:38:15.077Z,1019.57
2017-04-30T01:39:25.088Z,1019.56
2017-04-30T01:40:33.976Z,1019.57
2017-04-30T01:41:43.508Z,1019.59
2017-04-30T01:42:52.399Z,1019.59
2017-04-30T01:44:01.946Z,1019.59
2017-04-30T01:45:11.790Z,1019.56
2017-04-30T01:46:21.000Z,1019.61
2017-04-30T01:47:29.889Z,1019.59
2017-04-30T01:48:39.099Z,1019.61
2017-04-30T01:49:48.639Z,1019.6
2017-04-30T01:50:58.324Z,1019.6
2017-04-30T01:52:07.535Z,1019.64
2017-04-30T01:53:16.743Z,1019.63
2017-04-30T01:54:26.618Z,1019.69
2017-04-30T01:55:36.483Z,1019.66
2017-04-30T01:56:45.515Z,1019.63
2017-04-30T01:57:54.769Z,1019.67
2017-04-30T01:59:04.308Z,1019.63
2017-04-30T02:00:14.167Z,1019.63
2017-04-30T02:01:23.381Z,1019.6
2017-04-30T02:02:33.065Z,1019.63
2017-04-30T02:03:42.277Z,1019.58
2017-04-30T02:04:51.167Z,1019.63
2017-04-30T02:06:00.054Z,1019.6
2017-04-30T02:07:09.258Z,1019.58
2017-04-30T02:08:18.618Z,1019.65
2017-04-30T02:09:28.162Z,1019.61
2017-04-30T02:10:37.375Z,1019.66
2017-04-30T02:11:46.258Z,1019.64
2017-04-30T02:12:55.142Z,1019.7
2017-04-30T02:14:04.943Z,1019.64
2017-04-30T02:15:14.482Z,1019.63
2017-04-30T02:16:23.363Z,1019.6
2017-04-30T02:17:32.571Z,1019.63
2017-04-30T02:18:41.782Z,1019.59
2017-04-30T02:19:51.141Z,1019.64
2017-04-30T02:21:00.355Z,1019.6
2017-04-30T02:22:09.565Z,1019.63
2017-04-30T02:23:18.774Z,1019.64
2017-04-30T02:24:27.671Z,1019.64
2017-04-30T02:25:37.202Z,1019.64
2017-04-30T02:26:46.741Z,1019.63
2017-04-30T02:27:55.952Z,1019.62
2017-04-30T02:29:05.167Z,1019.63
2017-04-30T02:30:14.053Z,1019.62
2017-04-30T02:31:22.993Z,1019.59
2017-04-30T02:32:32.200Z,1019.58
2017-04-30T02:33:42.058Z,1019.59
2017-04-30T02:34:51.266Z,1019.6
2017-04-30T02:36:00.513Z,1019.59
2017-04-30T02:37:09.878Z,1019.6
2017-04-30T02:38:19.417Z,1019.64
2017-04-30T02:39:28.624Z,1019.59
2017-04-30T02:40:38.161Z,1019.64
2017-04-30T02:41:47.369Z,1019.64
2017-04-30T02:42:57.051Z,1019.62
2017-04-30T02:44:06.597Z,1019.59
2017-04-30T02:45:16.130Z,1019.57
2017-04-30T02:46:25.339Z,1019.54
2017-04-30T02:47:34.224Z,1019.58
2017-04-30T02:48:43.737Z,1019.56
2017-04-30T02:49:52.959Z,1019.58
2017-04-30T02:51:02.825Z,1019.59
2017-04-30T02:52:12.357Z,1019.56
2017-04-30T02:53:21.896Z,1019.56
2017-04-30T02:54:31.255Z,1019.5
2017-04-30T02:55:40.464Z,1019.5
2017-04-30T02:56:49.347Z,1019.5
2017-04-30T02:57:58.562Z,1019.5
2017-04-30T02:59:07.452Z,1019.49
2017-04-30T03:00:16.713Z,1019.53
2017-04-30T03:01:25.923Z,1019.51
2017-04-30T03:02:34.812Z,1019.52
2017-04-30T03:03:44.343Z,1019.49
2017-04-30T03:04:53.879Z,1019.47
2017-04-30T03:06:03.469Z,1019.46
2017-04-30T03:07:13.002Z,1019.45
2017-04-30T03:08:22.210Z,1019.51
2017-04-30T03:09:31.098Z,1019.5
2017-04-30T03:10:39.991Z,1019.5
2017-04-30T03:11:49.358Z,1019.43
2017-04-30T03:12:58.895Z,1019.49
2017-04-30T03:14:07.785Z,1019.49
2017-04-30T03:15:17.318Z,1019.49
2017-04-30T03:16:26.199Z,1019.44
2017-04-30T03:17:35.233Z,1019.47
2017-04-30T03:18:45.420Z,1019.45
2017-04-30T03:19:54.952Z,1019.43
2017-04-30T03:21:04.814Z,1019.47
2017-04-30T03:22:13.703Z,1019.48
2017-04-30T03:23:23.062Z,1019.47
2017-04-30T03:24:32.922Z,1019.48
2017-04-30T03:25:41.804Z,1019.53
2017-04-30T03:26:51.011Z,1019.49
2017-04-30T03:28:00.214Z,1019.53
2017-04-30T03:29:09.731Z,1019.53
2017-04-30T03:30:18.949Z,1019.48
2017-04-30T03:31:28.158Z,1019.48
2017-04-30T03:32:37.366Z,1019.5
2017-04-30T03:33:46.581Z,1019.43
2017-04-30T03:34:56.167Z,1019.48
2017-04-30T03:36:05.703Z,1019.47
2017-04-30T03:37:15.570Z,1019.46
2017-04-30T03:38:24.790Z,1019.45
2017-04-30T03:39:34.002Z,1019.47
2017-04-30T03:40:43.073Z,1019.47
2017-04-30T03:41:52.282Z,1019.48
2017-04-30T03:43:01.818Z,1019.51
2017-04-30T03:44:11.036Z,1019.48
2017-04-30T03:45:20.245Z,1019.49
2017-04-30T03:46:29.279Z,1019.48
2017-04-30T03:47:38.819Z,1019.48
2017-04-30T03:48:48.359Z,1019.49
2017-04-30T03:49:57.568Z,1019.45
2017-04-30T03:51:06.461Z,1019.45
2017-04-30T03:52:15.767Z,1019.46
2017-04-30T03:53:24.981Z,1019.48
2017-04-30T03:54:34.845Z,1019.48
2017-04-30T03:55:44.379Z,1019.47
2017-04-30T03:56:53.261Z,1019.51
2017-04-30T03:58:02.622Z,1019.53
2017-04-30T03:59:12.512Z,1019.53
2017-04-30T04:00:21.728Z,1019.51
2017-04-30T04:01:30.616Z,1019.54
2017-04-30T04:02:39.824Z,1019.56
2017-04-30T04:03:49.610Z,1019.53
2017-04-30T04:04:58.826Z,1019.56
2017-04-30T04:06:08.041Z,1019.59
2017-04-30T04:07:16.933Z,1019.61
2017-04-30T04:08:26.141Z,1019.6
2017-04-30T04:09:35.680Z,1019.63
2017-04-30T04:10:44.889Z,1019.59
2017-04-30T04:11:53.776Z,1019.64
2017-04-30T04:13:03.310Z,1019.63
2017-04-30T04:14:12.528Z,1019.69
2017-04-30T04:15:22.551Z,1019.66
2017-04-30T04:16:31.436Z,1019.68
2017-04-30T04:17:40.648Z,1019.74
2017-04-30T04:18:50.190Z,1019.76
2017-04-30T04:19:59.404Z,1019.82
2017-04-30T04:21:08.595Z,1019.8
2017-04-30T04:22:17.802Z,1019.8
2017-04-30T04:23:27.009Z,1019.82
2017-04-30T04:24:36.549Z,1019.76
2017-04-30T04:25:46.082Z,1019.81
2017-04-30T04:26:55.340Z,1019.81
2017-04-30T04:28:04.882Z,1019.8
2017-04-30T04:29:14.095Z,1019.85
2017-04-30T04:30:23.309Z,1019.79
2017-04-30T04:31:32.198Z,1019.81
2017-04-30T04:32:41.190Z,1019.81
2017-04-30T04:33:50.404Z,1019.79
2017-04-30T04:34:59.296Z,1019.82
2017-04-30T04:36:08.508Z,1019.79
2017-04-30T04:37:17.395Z,1019.8
2017-04-30T04:38:26.663Z,1019.78
2017-04-30T04:39:35.882Z,1019.8
2017-04-30T04:40:44.767Z,1019.77
2017-04-30T04:41:54.306Z,1019.76
2017-04-30T04:43:03.190Z,1019.82
2017-04-30T04:44:12.839Z,1019.79
2017-04-30T04:45:22.063Z,1019.8
2017-04-30T04:46:31.601Z,1019.8
2017-04-30T04:47:41.135Z,1019.82
2017-04-30T04:48:50.345Z,1019.85
2017-04-30T04:49:59.282Z,1019.84
2017-04-30T04:51:08.167Z,1019.84
2017-04-30T04:52:17.049Z,1019.84
2017-04-30T04:53:26.258Z,1019.76
2017-04-30T04:54:36.132Z,1019.83
2017-04-30T04:55:45.492Z,1019.8
2017-04-30T04:56:54.704Z,1019.82
2017-04-30T04:58:03.923Z,1019.76
2017-04-30T04:59:13.458Z,1019.79
2017-04-30T05:00:22.675Z,1019.71
2017-04-30T05:01:31.943Z,1019.77
2017-04-30T05:02:41.155Z,1019.76
2017-04-30T05:03:50.698Z,1019.74
2017-04-30T05:05:00.237Z,1019.74
2017-04-30T05:06:09.775Z,1019.73
2017-04-30T05:07:18.817Z,1019.72
2017-04-30T05:08:27.707Z,1019.74
2017-04-30T05:09:36.924Z,1019.75
2017-04-30T05:10:46.139Z,1019.69
2017-04-30T05:11:55.353Z,1019.72
2017-04-30T05:13:04.572Z,1019.72
2017-04-30T05:14:14.112Z,1019.69
2017-04-30T05:15:23.658Z,1019.72
2017-04-30T05:16:32.547Z,1019.7
2017-04-30T05:17:41.434Z,1019.69
2017-04-30T05:18:51.019Z,1019.67
2017-04-30T05:20:00.237Z,1019.63
2017-04-30T05:21:09.448Z,1019.65
2017-04-30T05:22:18.339Z,1019.67
2017-04-30T05:23:27.227Z,1019.66
2017-04-30T05:24:36.792Z,1019.66
2017-04-30T05:25:46.004Z,1019.64
2017-04-30T05:26:54.889Z,1019.62
2017-04-30T05:28:04.434Z,1019.6
2017-04-30T05:29:13.977Z,1019.56
2017-04-30T05:30:23.015Z,1019.63
2017-04-30T05:31:31.905Z,1019.58
2017-04-30T05:32:41.121Z,1019.65
2017-04-30T05:33:50.661Z,1019.61
2017-04-30T05:35:00.525Z,1019.64
2017-04-30T05:36:09.715Z,1019.59
2017-04-30T05:37:18.932Z,1019.61
2017-04-30T05:38:28.477Z,1019.62
2017-04-30T05:39:38.066Z,1019.54
2017-04-30T05:40:47.932Z,1019.54
2017-04-30T05:41:57.291Z,1019.54
2017-04-30T05:43:06.832Z,1019.53
2017-04-30T05:44:16.056Z,1019.58
2017-04-30T05:45:24.950Z,1019.52
2017-04-30T05:46:34.164Z,1019.56
2017-04-30T05:47:43.526Z,1019.56
2017-04-30T05:48:53.063Z,1019.56
2017-04-30T05:50:02.604Z,1019.62
2017-04-30T05:51:11.489Z,1019.57
2017-04-30T05:52:20.377Z,1019.59
2017-04-30T05:53:29.417Z,1019.63
2017-04-30T05:54:38.309Z,1019.63
2017-04-30T05:55:47.196Z,1019.65
2017-04-30T05:56:56.407Z,1019.65
2017-04-30T05:58:05.625Z,1019.65
2017-04-30T05:59:14.519Z,1019.68
2017-04-30T06:00:24.063Z,1019.64
2017-04-30T06:01:33.275Z,1019.65
2017-04-30T06:02:42.175Z,1019.62
2017-04-30T06:03:51.395Z,1019.64
2017-04-30T06:05:00.979Z,1019.64
2017-04-30T06:06:10.193Z,1019.58
2017-04-30T06:07:19.407Z,1019.62
2017-04-30T06:08:28.621Z,1019.62
2017-04-30T06:09:38.164Z,1019.59
2017-04-30T06:10:47.060Z,1019.57
2017-04-30T06:11:56.278Z,1019.57
2017-04-30T06:13:05.171Z,1019.6
2017-04-30T06:14:14.710Z,1019.58
2017-04-30T06:15:24.257Z,1019.57
2017-04-30T06:16:33.151Z,1019.58
2017-04-30T06:17:42.038Z,1019.55
2017-04-30T06:18:51.579Z,1019.49
2017-04-30T06:20:00.795Z,1019.49
2017-04-30T06:21:09.691Z,1019.52
2017-04-30T06:22:19.808Z,1019.52
2017-04-30T06:23:28.697Z,1019.48
2017-04-30T06:24:37.922Z,1019.5
2017-04-30T06:25:47.136Z,1019.47
2017-04-30T06:26:56.680Z,1019.47
2017-04-30T06:28:06.270Z,1019.5
2017-04-30T06:29:15.157Z,1019.48
2017-04-30T06:30:24.697Z,1019.42
2017-04-30T06:31:33.589Z,1019.52
2017-04-30T06:32:42.487Z,1019.45
2017-04-30T06:33:52.187Z,1019.45
2017-04-30T06:35:01.401Z,1019.46
2017-04-30T06:36:10.288Z,1019.44
2017-04-30T06:37:19.190Z,1019.39
2017-04-30T06:38:28.080Z,1019.39
2017-04-30T06:39:37.828Z,1019.42
2017-04-30T06:40:47.045Z,1019.44
2017-04-30T06:41:56.261Z,1019.46
2017-04-30T06:43:05.475Z,1019.45
2017-04-30T06:44:14.694Z,1019.46
2017-04-30T06:45:25.136Z,1019.39
2017-04-30T06:46:34.350Z,1019.39
2017-04-30T06:47:43.568Z,1019.42
2017-04-30T06:48:52.782Z,1019.35
2017-04-30T06:50:01.995Z,1019.45
2017-04-30T06:51:11.040Z,1019.41
2017-04-30T06:52:19.927Z,1019.43
2017-04-30T06:53:28.819Z,1019.37
2017-04-30T06:54:38.044Z,1019.41
2017-04-30T06:55:46.934Z,1019.45
2017-04-30T06:56:56.250Z,1019.42
2017-04-30T06:58:05.473Z,1019.38
2017-04-30T06:59:15.017Z,1019.42
2017-04-30T07:00:24.879Z,1019.39
2017-04-30T07:01:34.094Z,1019.39
2017-04-30T07:02:43.464Z,1019.37
2017-04-30T07:03:52.680Z,1019.38
2017-04-30T07:05:01.896Z,1019.34
2017-04-30T07:06:10.785Z,1019.36
2017-04-30T07:07:19.675Z,1019.38
2017-04-30T07:08:28.947Z,1019.38
2017-04-30T07:09:38.528Z,1019.46
2017-04-30T07:10:47.740Z,1019.33
2017-04-30T07:11:57.610Z,1019.33
2017-04-30T07:13:06.831Z,1019.35
2017-04-30T07:14:16.195Z,1019.34
2017-04-30T07:15:26.063Z,1019.29
2017-04-30T07:16:34.959Z,1019.3
2017-04-30T07:17:44.173Z,1019.31
2017-04-30T07:18:54.367Z,1019.3
2017-04-30T07:20:03.964Z,1019.3
2017-04-30T07:21:12.863Z,1019.26
2017-04-30T07:22:21.753Z,1019.32
2017-04-30T07:23:30.646Z,1019.24
2017-04-30T07:24:39.863Z,1019.25
2017-04-30T07:25:49.139Z,1019.21
2017-04-30T07:26:58.356Z,1019.22
2017-04-30T07:28:07.244Z,1019.19
2017-04-30T07:29:16.788Z,1019.18
2017-04-30T07:30:26.337Z,1019.22
2017-04-30T07:31:35.756Z,1019.24
2017-04-30T07:32:44.647Z,1019.19
2017-04-30T07:33:53.870Z,1019.18
2017-04-30T07:35:03.087Z,1019.18
2017-04-30T07:36:11.981Z,1019.13
2017-04-30T07:37:21.671Z,1019.18
2017-04-30T07:38:31.211Z,1019.11
2017-04-30T07:39:40.752Z,1019.12
2017-04-30T07:40:49.972Z,1019.09
2017-04-30T07:41:59.191Z,1019.08
2017-04-30T07:43:08.555Z,1019.03
2017-04-30T07:44:17.777Z,1019.01
2017-04-30T07:45:26.995Z,1019.06
2017-04-30T07:46:36.228Z,1019.03
2017-04-30T07:47:45.775Z,1018.99
2017-04-30T07:48:55.473Z,1018.98
2017-04-30T07:50:04.691Z,1019.11
2017-04-30T07:51:13.586Z,1019.03
2017-04-30T07:52:22.804Z,1019.05
2017-04-30T07:53:32.346Z,1018.96
2017-04-30T07:54:41.591Z,1019.05
2017-04-30T07:55:50.487Z,1019.07
2017-04-30T07:56:59.381Z,1018.93
2017-04-30T07:58:08.270Z,1018.99
2017-04-30T07:59:18.473Z,1019.05
2017-04-30T08:00:28.448Z,1018.99
2017-04-30T08:01:37.664Z,1018.95
2017-04-30T08:02:46.890Z,1018.97
2017-04-30T08:03:56.443Z,1018.97
2017-04-30T08:05:05.991Z,1018.95
2017-04-30T08:06:15.032Z,1018.93
2017-04-30T08:07:24.249Z,1018.9
2017-04-30T08:08:33.794Z,1018.93
2017-04-30T08:09:43.014Z,1018.96
2017-04-30T08:10:52.881Z,1018.92
2017-04-30T08:12:01.932Z,1018.84
2017-04-30T08:13:10.830Z,1018.82
2017-04-30T08:14:20.376Z,1018.9
2017-04-30T08:15:30.255Z,1018.88
2017-04-30T08:16:39.153Z,1018.86
2017-04-30T08:17:48.195Z,1018.79
2017-04-30T08:18:57.739Z,1018.86
2017-04-30T08:20:07.320Z,1018.89
2017-04-30T08:21:16.220Z,1018.82
2017-04-30T08:22:25.437Z,1018.84
2017-04-30T08:23:34.953Z,1018.79
2017-04-30T08:24:43.846Z,1018.76
2017-04-30T08:25:53.714Z,1018.62
2017-04-30T08:27:03.261Z,1018.75
2017-04-30T08:28:12.155Z,1018.69
2017-04-30T08:29:21.762Z,1018.73
2017-04-30T08:30:31.629Z,1018.68
2017-04-30T08:31:40.848Z,1018.65
2017-04-30T08:32:50.069Z,1018.64
2017-04-30T08:33:59.621Z,1018.64
2017-04-30T08:35:08.915Z,1018.67
2017-04-30T08:36:17.808Z,1018.59
2017-04-30T08:37:26.703Z,1018.6
2017-04-30T08:38:36.578Z,1018.62
2017-04-30T08:39:45.797Z,1018.57
2017-04-30T08:40:54.842Z,1018.61
2017-04-30T08:42:04.055Z,1018.54
2017-04-30T08:43:12.952Z,1018.54
2017-04-30T08:44:21.864Z,1018.57
2017-04-30T08:45:31.083Z,1018.47
2017-04-30T08:46:41.099Z,1018.48
2017-04-30T08:47:50.648Z,1018.56
2017-04-30T08:49:00.523Z,1018.5
2017-04-30T08:50:10.070Z,1018.52
2017-04-30T08:51:19.291Z,1018.55
2017-04-30T08:52:28.235Z,1018.46
2017-04-30T08:53:37.782Z,1018.52
2017-04-30T08:54:47.657Z,1018.56
2017-04-30T08:55:56.877Z,1018.54
2017-04-30T08:57:06.753Z,1018.51
2017-04-30T08:58:15.793Z,1018.5
2017-04-30T08:59:25.340Z,1018.52
2017-04-30T09:00:34.560Z,1018.5
2017-04-30T09:01:43.459Z,1018.42
2017-04-30T09:02:52.355Z,1018.43
2017-04-30T09:04:01.868Z,1018.41
2017-04-30T09:05:11.085Z,1018.38
2017-04-30T09:06:19.987Z,1018.33
2017-04-30T09:07:29.204Z,1018.35
2017-04-30T09:08:39.079Z,1018.36
2017-04-30T09:09:48.930Z,1018.31
2017-04-30T09:10:58.160Z,1018.34
2017-04-30T09:12:07.378Z,1018.29
2017-04-30T09:13:16.598Z,1018.27
2017-04-30T09:14:26.845Z,1018.3
2017-04-30T09:15:36.591Z,1018.21
2017-04-30T09:16:45.484Z,1018.23
2017-04-30T09:17:55.354Z,1018.19
2017-04-30T09:19:04.576Z,1018.17
2017-04-30T09:20:14.452Z,1018.17
2017-04-30T09:21:23.492Z,1018.16
2017-04-30T09:22:32.382Z,1018.08
2017-04-30T09:23:41.279Z,1018.14
2017-04-30T09:24:50.178Z,1018.07
2017-04-30T09:25:59.399Z,1018.08
2017-04-30T09:27:08.670Z,1018.05
2017-04-30T09:28:17.565Z,1018.11
2017-04-30T09:29:27.111Z,1018.06
2017-04-30T09:30:36.339Z,1018.07
2017-04-30T09:31:45.568Z,1018.04
2017-04-30T09:32:55.274Z,1018.04
2017-04-30T09:34:04.874Z,1017.98
2017-04-30T09:35:13.767Z,1018.06
2017-04-30T09:36:22.662Z,1017.96
2017-04-30T09:37:31.558Z,1018.01
2017-04-30T09:38:40.832Z,1017.98
2017-04-30T09:39:50.052Z,1017.96
2017-04-30T09:40:59.275Z,1018.03
2017-04-30T09:42:08.169Z,1017.99
2017-04-30T09:43:17.062Z,1017.91
2017-04-30T09:44:26.434Z,1017.88
2017-04-30T09:45:35.983Z,1017.93
2017-04-30T09:46:45.206Z,1017.84
2017-04-30T09:47:54.100Z,1017.85
2017-04-30T09:49:03.971Z,1017.75
2017-04-30T09:50:13.849Z,1017.77
2017-04-30T09:51:22.744Z,1017.78
2017-04-30T09:52:31.640Z,1017.78
2017-04-30T09:53:41.190Z,1017.84
2017-04-30T09:54:50.745Z,1017.68
2017-04-30T09:56:00.771Z,1017.68
2017-04-30T09:57:10.002Z,1017.75
2017-04-30T09:58:19.221Z,1017.76
2017-04-30T09:59:28.768Z,1017.67
2017-04-30T10:00:37.987Z,1017.71
2017-04-30T10:01:47.132Z,1017.69
2017-04-30T10:02:56.026Z,1017.68
2017-04-30T10:04:05.246Z,1017.64
2017-04-30T10:05:14.789Z,1017.59
2017-04-30T10:06:24.007Z,1017.6
2017-04-30T10:07:33.050Z,1017.59
2017-04-30T10:08:41.942Z,1017.52
2017-04-30T10:09:50.844Z,1017.62
2017-04-30T10:11:00.395Z,1017.6
2017-04-30T10:12:09.291Z,1017.6
2017-04-30T10:13:18.608Z,1017.52
2017-04-30T10:14:28.480Z,1017.53
2017-04-30T10:15:38.028Z,1017.55
2017-04-30T10:16:47.253Z,1017.47
2017-04-30T10:17:56.148Z,1017.51
2017-04-30T10:19:05.518Z,1017.49
2017-04-30T10:20:15.064Z,1017.52
2017-04-30T10:21:23.959Z,1017.41
2017-04-30T10:22:33.504Z,1017.46
2017-04-30T10:23:42.726Z,1017.47
2017-04-30T10:24:52.106Z,1017.47
2017-04-30T10:26:01.982Z,1017.39
2017-04-30T10:27:11.855Z,1017.34
2017-04-30T10:28:21.405Z,1017.25
2017-04-30T10:29:30.964Z,1017.33
2017-04-30T10:30:40.334Z,1017.29
2017-04-30T10:31:49.236Z,1017.3
2017-04-30T10:32:58.130Z,1017.26
2017-04-30T10:34:07.030Z,1017.2
2017-04-30T10:35:16.602Z,1017.19
2017-04-30T10:36:25.907Z,1017.21
2017-04-30T10:37:34.800Z,1017.26
2017-04-30T10:38:44.347Z,1017.25
2017-04-30T10:39:53.568Z,1017.21
2017-04-30T10:41:02.789Z,1017.19
2017-04-30T10:42:11.834Z,1017.11
2017-04-30T10:43:20.725Z,1017.12
2017-04-30T10:44:30.927Z,1017.19
2017-04-30T10:45:40.472Z,1017.17
2017-04-30T10:46:49.371Z,1017.16
2017-04-30T10:47:59.067Z,1017.15
2017-04-30T10:49:08.291Z,1017.05
2017-04-30T10:50:17.838Z,1017.1
2017-04-30T10:51:27.054Z,1016.97
2017-04-30T10:52:36.608Z,1017.05
2017-04-30T10:53:46.258Z,1017.02
2017-04-30T10:54:55.802Z,1016.97
2017-04-30T10:56:05.353Z,1017.01
2017-04-30T10:57:14.251Z,1017
2017-04-30T10:58:24.127Z,1016.96
2017-04-30T10:59:33.819Z,1016.99
2017-04-30T11:00:43.403Z,1016.88
2017-04-30T11:01:52.623Z,1016.95
2017-04-30T11:03:01.845Z,1016.9
2017-04-30T11:04:11.393Z,1016.96
2017-04-30T11:05:20.766Z,1016.88
2017-04-30T11:06:30.307Z,1016.85
2017-04-30T11:07:39.198Z,1016.85
2017-04-30T11:08:49.401Z,1016.85
2017-04-30T11:09:58.630Z,1016.77
2017-04-30T11:11:07.677Z,1016.77
2017-04-30T11:12:16.932Z,1016.76
2017-04-30T11:13:25.828Z,1016.86
2017-04-30T11:14:35.702Z,1016.74
2017-04-30T11:15:44.956Z,1016.72
2017-04-30T11:16:54.443Z,1016.64
2017-04-30T11:18:03.348Z,1016.65
2017-04-30T11:19:12.898Z,1016.64
2017-04-30T11:20:22.445Z,1016.67
2017-04-30T11:21:31.343Z,1016.6
2017-04-30T11:22:40.237Z,1016.58
2017-04-30T11:23:49.788Z,1016.56
2017-04-30T11:24:59.010Z,1016.61
2017-04-30T11:26:08.236Z,1016.62
2017-04-30T11:27:17.783Z,1016.53
2017-04-30T11:28:26.980Z,1016.53
2017-04-30T11:29:36.531Z,1016.44
2017-04-30T11:30:45.748Z,1016.5
2017-04-30T11:31:54.644Z,1016.6
2017-04-30T11:33:04.188Z,1016.5
2017-04-30T11:34:13.886Z,1016.49
2017-04-30T11:35:22.787Z,1016.44
2017-04-30T11:36:32.013Z,1016.38
2017-04-30T11:37:41.248Z,1016.39
2017-04-30T11:38:50.473Z,1016.39
2017-04-30T11:39:59.745Z,1016.29
2017-04-30T11:41:08.973Z,1016.33
2017-04-30T11:42:18.526Z,1016.26
2017-04-30T11:43:27.747Z,1016.25
2017-04-30T11:44:36.971Z,1016.26
2017-04-30T11:45:46.029Z,1016.21
2017-04-30T11:46:54.930Z,1016.27
2017-04-30T11:48:04.806Z,1016.22
2017-04-30T11:49:14.366Z,1016.27
2017-04-30T11:50:23.917Z,1016.31
2017-04-30T11:51:33.619Z,1016.31
2017-04-30T11:52:42.523Z,1016.24
2017-04-30T11:53:52.407Z,1016.31
2017-04-30T11:55:01.955Z,1016.21
2017-04-30T11:56:10.847Z,1016.25
2017-04-30T11:57:20.049Z,1016.3
2017-04-30T11:58:28.951Z,1016.2
2017-04-30T11:59:37.854Z,1016.28
2017-04-30T12:00:47.083Z,1016.2
2017-04-30T12:01:56.311Z,1016.23
2017-04-30T12:03:05.514Z,1016.19
2017-04-30T12:04:14.742Z,1016.18
2017-04-30T12:05:23.970Z,1016.21
2017-04-30T12:06:32.873Z,1016.25
2017-04-30T12:07:41.781Z,1016.2
2017-04-30T12:08:50.785Z,1016.14
2017-04-30T12:10:00.349Z,1016.06
2017-04-30T12:11:09.582Z,1016.1
2017-04-30T12:12:18.487Z,1016.11
2017-04-30T12:13:27.716Z,1016.1
2017-04-30T12:14:37.433Z,1016.04
2017-04-30T12:15:46.342Z,1016.12
2017-04-30T12:16:55.898Z,1016.06
2017-04-30T12:18:05.128Z,1016.13
2017-04-30T12:19:14.387Z,1016.03
2017-04-30T12:20:24.025Z,1016
2017-04-30T12:21:33.953Z,1015.98
2017-04-30T12:22:43.182Z,1015.93
2017-04-30T12:23:52.090Z,1015.99
2017-04-30T12:25:01.648Z,1015.99
2017-04-30T12:26:10.756Z,1016.04
2017-04-30T12:27:19.987Z,1015.97
2017-04-30T12:28:29.223Z,1015.89
2017-04-30T12:29:38.777Z,1015.97
2017-04-30T12:30:48.005Z,1015.98
2017-04-30T12:31:57.070Z,1015.9
2017-04-30T12:33:06.987Z,1015.84
2017-04-30T12:34:15.901Z,1015.97
2017-04-30T12:35:25.466Z,1015.83
2017-04-30T12:36:34.372Z,1015.88
2017-04-30T12:37:43.802Z,1015.85
2017-04-30T12:38:53.357Z,1015.74
2017-04-30T12:40:02.263Z,1015.83
2017-04-30T12:41:11.172Z,1015.86
2017-04-30T12:42:20.077Z,1015.82
2017-04-30T12:43:29.084Z,1015.76
2017-04-30T12:44:38.648Z,1015.73
2017-04-30T12:45:47.882Z,1015.79
2017-04-30T12:46:57.451Z,1015.7
2017-04-30T12:48:06.685Z,1015.77
2017-04-30T12:49:15.976Z,1015.68
2017-04-30T12:50:25.578Z,1015.74
2017-04-30T12:51:34.494Z,1015.72
2017-04-30T12:52:43.402Z,1015.53
2017-04-30T12:53:52.961Z,1015.65
2017-04-30T12:55:02.452Z,1015.68
2017-04-30T12:56:11.357Z,1015.72
2017-04-30T12:57:20.585Z,1015.62
2017-04-30T12:58:29.493Z,1015.63
2017-04-30T12:59:38.737Z,1015.64
2017-04-30T13:00:48.074Z,1015.63
2017-04-30T13:01:57.307Z,1015.49
2017-04-30T13:03:06.540Z,1015.63
2017-04-30T13:04:16.427Z,1015.56
2017-04-30T13:05:25.677Z,1015.57
2017-04-30T13:06:34.637Z,1015.64
2017-04-30T13:07:44.210Z,1015.64
2017-04-30T13:08:54.104Z,1015.61
2017-04-30T13:10:03.340Z,1015.51
2017-04-30T13:11:12.255Z,1015.54
2017-04-30T13:12:21.639Z,1015.53
2017-04-30T13:13:30.878Z,1015.49
2017-04-30T13:14:39.793Z,1015.45
2017-04-30T13:15:49.355Z,1015.48
2017-04-30T13:16:58.299Z,1015.4
2017-04-30T13:18:07.365Z,1015.41
2017-04-30T13:19:17.254Z,1015.39
2017-04-30T13:20:26.498Z,1015.26
2017-04-30T13:21:35.742Z,1015.26
2017-04-30T13:22:44.977Z,1015.37
2017-04-30T13:23:54.699Z,1015.39
2017-04-30T13:25:03.941Z,1015.33
2017-04-30T13:26:13.498Z,1015.39
2017-04-30T13:27:22.415Z,1015.32
2017-04-30T13:28:31.651Z,1015.31
2017-04-30T13:29:41.215Z,1015.28
2017-04-30T13:30:50.778Z,1015.11
2017-04-30T13:32:00.018Z,1015.04
2017-04-30T13:33:08.933Z,1015.09
2017-04-30T13:34:18.500Z,1015.07
2017-04-30T13:35:28.639Z,1015.21
2017-04-30T13:36:37.553Z,1015.04
2017-04-30T13:37:46.475Z,1015.05
2017-04-30T13:38:55.717Z,1015
2017-04-30T13:40:04.959Z,1015.04
2017-04-30T13:41:14.544Z,1014.95
2017-04-30T13:42:23.781Z,1014.9
2017-04-30T13:43:32.694Z,1014.95
2017-04-30T13:44:41.935Z,1014.88
2017-04-30T13:45:51.178Z,1014.93
2017-04-30T13:47:00.260Z,1014.97
2017-04-30T13:48:09.174Z,1014.85
2017-04-30T13:49:19.077Z,1014.95
2017-04-30T13:50:28.970Z,1014.9
2017-04-30T13:51:37.886Z,1014.9
2017-04-30T13:52:47.605Z,1014.8
2017-04-30T13:53:57.822Z,1014.73
2017-04-30T13:55:06.734Z,1014.75
2017-04-30T13:56:15.648Z,1014.79
2017-04-30T13:57:24.571Z,1014.72
2017-04-30T13:58:34.259Z,1014.78
2017-04-30T13:59:43.501Z,1014.74
2017-04-30T14:00:52.749Z,1014.72